createdAt,value
2017-01-08T00:00:20.342Z,0
2017-01-08T00:01:20.315Z,0
2017-01-08T00:02:20.722Z,0
2017-01-08T00:03:20.303Z,0
2017-01-08T00:04:20.722Z,0
2017-01-08T00:05:20.295Z,0
2017-01-08T00:06:20.703Z,0
2017-01-08T00:07:20.283Z,0
2017-01-08T00:08:20.291Z,0
2017-01-08T00:09:20.287Z,0
2017-01-08T00:10:20.691Z,0
2017-01-08T00:11:20.695Z,0
2017-01-08T00:12:20.683Z,0
2017-01-08T00:13:20.707Z,0
2017-01-08T00:14:20.267Z,0
2017-01-08T00:15:19.852Z,0
2017-01-08T00:16:19.851Z,0
2017-01-08T00:17:20.251Z,0
2017-01-08T00:18:20.254Z,0
2017-01-08T00:19:19.843Z,0
2017-01-08T00:20:19.823Z,0
2017-01-08T00:21:19.832Z,0
2017-01-08T00:22:20.236Z,0
2017-01-08T00:23:20.228Z,0
2017-01-08T00:24:19.395Z,0
2017-01-08T00:25:20.636Z,0
2017-01-08T00:26:20.636Z,0
2017-01-08T00:27:20.216Z,0
2017-01-08T00:28:20.216Z,0
2017-01-08T00:29:20.208Z,0
2017-01-08T00:30:20.208Z,0
2017-01-08T00:31:20.208Z,0
2017-01-08T00:32:19.379Z,0
2017-01-08T00:33:20.204Z,0
2017-01-08T00:34:19.373Z,0
2017-01-08T00:35:20.196Z,0
2017-01-08T00:36:20.596Z,0
2017-01-08T00:37:20.184Z,0
2017-01-08T00:38:19.764Z,0
2017-01-08T00:39:20.176Z,0
2017-01-08T00:40:20.173Z,0
2017-01-08T00:41:20.157Z,0
2017-01-08T00:42:20.600Z,0
2017-01-08T00:43:20.165Z,0
2017-01-08T00:44:19.745Z,0
2017-01-08T00:45:19.749Z,0
2017-01-08T00:46:20.153Z,0
2017-01-08T00:47:20.145Z,0
2017-01-08T00:48:20.545Z,0
2017-01-08T00:49:20.137Z,0
2017-01-08T00:50:20.137Z,0
2017-01-08T00:51:20.537Z,0
2017-01-08T00:52:19.726Z,0
2017-01-08T00:53:19.714Z,0
2017-01-08T00:54:20.118Z,0
2017-01-08T00:55:20.113Z,0
2017-01-08T00:56:19.698Z,0
2017-01-08T00:57:19.686Z,0
2017-01-08T00:58:20.517Z,0
2017-01-08T00:59:19.698Z,0
2017-01-08T01:00:19.682Z,0
2017-01-08T01:01:19.274Z,0
2017-01-08T01:02:20.090Z,0
2017-01-08T01:03:19.694Z,0
2017-01-08T01:04:19.670Z,0
2017-01-08T01:05:19.666Z,0
2017-01-08T01:06:20.487Z,0
2017-01-08T01:07:19.658Z,0
2017-01-08T01:08:20.067Z,0
2017-01-08T01:09:20.059Z,0
2017-01-08T01:10:20.058Z,0
2017-01-08T01:11:20.467Z,0
2017-01-08T01:12:20.463Z,0
2017-01-08T01:13:20.463Z,0
2017-01-08T01:14:20.451Z,0
2017-01-08T01:15:20.451Z,0
2017-01-08T01:16:20.039Z,0
2017-01-08T01:17:19.211Z,0
2017-01-08T01:18:20.443Z,0
2017-01-08T01:19:19.615Z,0
2017-01-08T01:20:19.619Z,0
2017-01-08T01:21:20.019Z,0
2017-01-08T01:22:20.423Z,0
2017-01-08T01:23:20.011Z,0
2017-01-08T01:24:20.003Z,0
2017-01-08T01:25:20.003Z,0
2017-01-08T01:26:20.020Z,0
2017-01-08T01:27:19.176Z,0
2017-01-08T01:28:19.996Z,0
2017-01-08T01:29:19.980Z,0
2017-01-08T01:30:20.404Z,0
2017-01-08T01:31:19.152Z,0
2017-01-08T01:32:20.396Z,0
2017-01-08T01:33:19.600Z,0
2017-01-08T01:34:20.380Z,0
2017-01-08T01:35:19.976Z,0
2017-01-08T01:36:19.960Z,0
2017-01-08T01:37:20.368Z,0
2017-01-08T01:38:19.549Z,0
2017-01-08T01:39:19.541Z,0
2017-01-08T01:40:19.957Z,0
2017-01-08T01:41:20.361Z,0
2017-01-08T01:42:19.941Z,0
2017-01-08T01:43:20.349Z,0
2017-01-08T01:44:20.341Z,0
2017-01-08T01:45:20.341Z,0
2017-01-08T01:46:19.535Z,0
2017-01-08T01:47:20.325Z,0
2017-01-08T01:48:19.501Z,0
2017-01-08T01:49:19.501Z,0
2017-01-08T01:50:19.493Z,0
2017-01-08T01:51:19.494Z,0
2017-01-08T01:52:19.910Z,0
2017-01-08T01:53:19.902Z,0
2017-01-08T01:54:19.902Z,0
2017-01-08T01:55:19.886Z,0
2017-01-08T01:56:19.894Z,0
2017-01-08T01:57:20.302Z,0
2017-01-08T01:58:20.290Z,0
2017-01-08T01:59:19.470Z,0
2017-01-08T02:00:19.874Z,0
2017-01-08T02:01:19.468Z,0
2017-01-08T02:02:19.867Z,0
2017-01-08T02:03:19.454Z,0
2017-01-08T02:04:19.447Z,0
2017-01-08T02:05:19.863Z,0
2017-01-08T02:06:19.443Z,0
2017-01-08T02:07:19.447Z,0
2017-01-08T02:08:19.427Z,0
2017-01-08T02:09:19.439Z,0
2017-01-08T02:10:19.018Z,0
2017-01-08T02:11:20.271Z,0
2017-01-08T02:12:19.831Z,0
2017-01-08T02:13:19.819Z,0
2017-01-08T02:14:19.419Z,0
2017-01-08T02:15:19.827Z,0
2017-01-08T02:16:19.404Z,0
2017-01-08T02:17:20.219Z,0
2017-01-08T02:18:19.400Z,0
2017-01-08T02:19:20.216Z,0
2017-01-08T02:20:19.800Z,0
2017-01-08T02:21:19.796Z,0
2017-01-08T02:22:18.968Z,0
2017-01-08T02:23:19.384Z,0
2017-01-08T02:24:19.788Z,0
2017-01-08T02:25:19.372Z,0
2017-01-08T02:26:18.956Z,0
2017-01-08T02:27:19.776Z,0
2017-01-08T02:28:19.368Z,0
2017-01-08T02:29:19.792Z,0
2017-01-08T02:30:19.760Z,0
2017-01-08T02:31:19.757Z,0
2017-01-08T02:32:19.748Z,0
2017-01-08T02:33:19.760Z,0
2017-01-08T02:34:18.924Z,0
2017-01-08T02:35:19.748Z,0
2017-01-08T02:36:19.324Z,0
2017-01-08T02:37:19.329Z,0
2017-01-08T02:38:19.740Z,0
2017-01-08T02:39:19.728Z,0
2017-01-08T02:40:18.900Z,0
2017-01-08T02:41:20.136Z,0
2017-01-08T02:42:19.312Z,0
2017-01-08T02:43:20.124Z,0
2017-01-08T02:44:19.711Z,0
2017-01-08T02:45:19.303Z,0
2017-01-08T02:46:19.301Z,0
2017-01-08T02:47:18.887Z,0
2017-01-08T02:48:20.107Z,0
2017-01-08T02:49:19.275Z,0
2017-01-08T02:50:19.271Z,0
2017-01-08T02:51:20.091Z,0
2017-01-08T02:52:18.847Z,0
2017-01-08T02:53:19.679Z,0
2017-01-08T02:54:19.301Z,0
2017-01-08T02:55:20.083Z,0
2017-01-08T02:56:19.667Z,0
2017-01-08T02:57:19.690Z,0
2017-01-08T02:58:19.662Z,0
2017-01-08T02:59:20.083Z,0
2017-01-08T03:00:19.235Z,0
2017-01-08T03:01:19.646Z,0
2017-01-08T03:02:19.230Z,0
2017-01-08T03:03:19.226Z,0
2017-01-08T03:04:19.626Z,0
2017-01-08T03:05:19.618Z,0
2017-01-08T03:06:20.038Z,0
2017-01-08T03:07:19.206Z,0
2017-01-08T03:08:20.033Z,0
2017-01-08T03:09:19.205Z,0
2017-01-08T03:10:19.201Z,0
2017-01-08T03:11:19.601Z,0
2017-01-08T03:12:19.196Z,0
2017-01-08T03:13:19.184Z,0
2017-01-08T03:14:19.588Z,0
2017-01-08T03:15:19.188Z,0
2017-01-08T03:16:20.004Z,0
2017-01-08T03:17:18.763Z,0
2017-01-08T03:18:18.759Z,0
2017-01-08T03:19:19.612Z,0
2017-01-08T03:20:19.563Z,0
2017-01-08T03:21:19.974Z,0
2017-01-08T03:22:19.562Z,0
2017-01-08T03:23:19.554Z,0
2017-01-08T03:24:19.146Z,0
2017-01-08T03:25:19.962Z,0
2017-01-08T03:26:19.538Z,0
2017-01-08T03:27:19.546Z,0
2017-01-08T03:28:19.946Z,0
2017-01-08T03:29:19.538Z,0
2017-01-08T03:30:18.717Z,0
2017-01-08T03:31:19.530Z,0
2017-01-08T03:32:19.549Z,0
2017-01-08T03:33:19.509Z,0
2017-01-08T03:34:19.113Z,0
2017-01-08T03:35:19.513Z,0
2017-01-08T03:36:19.505Z,0
2017-01-08T03:37:19.085Z,0
2017-01-08T03:38:19.093Z,0
2017-01-08T03:39:19.485Z,0
2017-01-08T03:40:18.669Z,0
2017-01-08T03:41:19.901Z,0
2017-01-08T03:42:18.657Z,0
2017-01-08T03:43:19.509Z,0
2017-01-08T03:44:19.877Z,0
2017-01-08T03:45:19.465Z,0
2017-01-08T03:46:19.880Z,0
2017-01-08T03:47:19.057Z,0
2017-01-08T03:48:19.457Z,0
2017-01-08T03:49:19.453Z,0
2017-01-08T03:50:19.045Z,0
2017-01-08T03:51:19.041Z,0
2017-01-08T03:52:19.029Z,0
2017-01-08T03:53:19.445Z,0
2017-01-08T03:54:19.853Z,0
2017-01-08T03:55:18.605Z,0
2017-01-08T03:56:19.845Z,0
2017-01-08T03:57:19.841Z,0
2017-01-08T03:58:19.837Z,0
2017-01-08T03:59:19.001Z,0
2017-01-08T04:00:19.833Z,0
2017-01-08T04:01:19.001Z,0
2017-01-08T04:02:19.409Z,0
2017-01-08T04:03:18.997Z,0
2017-01-08T04:04:19.397Z,0
2017-01-08T04:05:19.805Z,0
2017-01-08T04:06:19.397Z,0
2017-01-08T04:07:19.393Z,0
2017-01-08T04:08:19.385Z,0
2017-01-08T04:09:18.981Z,0
2017-01-08T04:10:19.369Z,0
2017-01-08T04:11:19.784Z,0
2017-01-08T04:12:19.368Z,0
2017-01-08T04:13:19.377Z,0
2017-01-08T04:14:19.356Z,0
2017-01-08T04:15:18.957Z,0
2017-01-08T04:16:18.973Z,0
2017-01-08T04:17:19.357Z,0
2017-01-08T04:18:19.352Z,0
2017-01-08T04:19:19.341Z,0
2017-01-08T04:20:18.925Z,0
2017-01-08T04:21:19.337Z,0
2017-01-08T04:22:19.329Z,0
2017-01-08T04:23:19.334Z,0
2017-01-08T04:24:18.898Z,0
2017-01-08T04:25:19.742Z,0
2017-01-08T04:26:18.490Z,0
2017-01-08T04:27:19.318Z,0
2017-01-08T04:28:19.318Z,0
2017-01-08T04:29:19.311Z,0
2017-01-08T04:30:19.318Z,0
2017-01-08T04:31:19.307Z,0
2017-01-08T04:32:19.299Z,0
2017-01-08T04:33:18.879Z,0
2017-01-08T04:34:19.291Z,0
2017-01-08T04:35:19.723Z,0
2017-01-08T04:36:19.695Z,0
2017-01-08T04:37:18.043Z,0
2017-01-08T04:38:18.864Z,0
2017-01-08T04:39:18.863Z,0
2017-01-08T04:40:19.267Z,0
2017-01-08T04:41:19.260Z,0
2017-01-08T04:42:19.256Z,0
2017-01-08T04:43:19.256Z,0
2017-01-08T04:44:19.492Z,0
2017-01-08T04:45:19.664Z,0
2017-01-08T04:46:18.836Z,0
2017-01-08T04:47:18.836Z,0
2017-01-08T04:48:19.245Z,0
2017-01-08T04:49:19.236Z,0
2017-01-08T04:50:19.233Z,0
2017-01-08T04:51:19.641Z,0
2017-01-08T04:52:19.221Z,0
2017-01-08T04:53:18.812Z,0
2017-01-08T04:54:18.805Z,0
2017-01-08T04:55:19.245Z,0
2017-01-08T04:56:18.797Z,0
2017-01-08T04:57:19.617Z,0
2017-01-08T04:58:18.782Z,0
2017-01-08T04:59:19.194Z,0
2017-01-08T05:00:19.186Z,0
2017-01-08T05:01:19.213Z,0
2017-01-08T05:02:19.598Z,0
2017-01-08T05:03:18.362Z,0
2017-01-08T05:04:19.186Z,0
2017-01-08T05:05:19.598Z,0
2017-01-08T05:06:19.178Z,0
2017-01-08T05:07:19.578Z,0
2017-01-08T05:08:18.754Z,0
2017-01-08T05:09:19.571Z,0
2017-01-08T05:10:19.155Z,0
2017-01-08T05:11:19.151Z,0
2017-01-08T05:12:19.143Z,0
2017-01-08T05:13:19.139Z,0
2017-01-08T05:14:19.147Z,0
2017-01-08T05:15:18.723Z,0
2017-01-08T05:16:19.135Z,0
2017-01-08T05:17:18.719Z,0
2017-01-08T05:18:18.711Z,0
2017-01-08T05:19:18.708Z,0
2017-01-08T05:20:19.523Z,0
2017-01-08T05:21:19.535Z,0
2017-01-08T05:22:19.112Z,0
2017-01-08T05:23:18.292Z,0
2017-01-08T05:24:19.108Z,0
2017-01-08T05:25:18.288Z,0
2017-01-08T05:26:18.700Z,0
2017-01-08T05:27:18.680Z,0
2017-01-08T05:28:19.120Z,0
2017-01-08T05:29:18.268Z,0
2017-01-08T05:30:19.496Z,0
2017-01-08T05:31:18.666Z,0
2017-01-08T05:32:19.481Z,0
2017-01-08T05:33:18.664Z,0
2017-01-08T05:34:19.069Z,0
2017-01-08T05:35:18.660Z,0
2017-01-08T05:36:19.056Z,0
2017-01-08T05:37:18.640Z,0
2017-01-08T05:38:19.460Z,0
2017-01-08T05:39:19.449Z,0
2017-01-08T05:40:19.056Z,0
2017-01-08T05:41:19.036Z,0
2017-01-08T05:42:18.636Z,0
2017-01-08T05:43:19.037Z,0
2017-01-08T05:44:18.628Z,0
2017-01-08T05:45:18.201Z,0
2017-01-08T05:46:19.033Z,0
2017-01-08T05:47:19.017Z,0
2017-01-08T05:48:19.021Z,0
2017-01-08T05:49:19.021Z,0
2017-01-08T05:50:18.185Z,0
2017-01-08T05:51:19.409Z,0
2017-01-08T05:52:18.189Z,0
2017-01-08T05:53:18.996Z,0
2017-01-08T05:54:18.993Z,0
2017-01-08T05:55:18.997Z,0
2017-01-08T05:56:18.981Z,0
2017-01-08T05:57:18.573Z,0
2017-01-08T05:58:18.553Z,0
2017-01-08T05:59:18.149Z,0
2017-01-08T06:00:18.961Z,0
2017-01-08T06:01:18.967Z,0
2017-01-08T06:02:19.378Z,0
2017-01-08T06:03:18.545Z,0
2017-01-08T06:04:18.545Z,0
2017-01-08T06:05:18.541Z,0
2017-01-08T06:06:18.537Z,0
2017-01-08T06:07:18.969Z,0
2017-01-08T06:08:19.350Z,0
2017-01-08T06:09:18.530Z,0
2017-01-08T06:10:18.930Z,0
2017-01-08T06:11:18.522Z,0
2017-01-08T06:12:19.335Z,0
2017-01-08T06:13:18.911Z,0
2017-01-08T06:14:18.507Z,0
2017-01-08T06:15:18.915Z,0
2017-01-08T06:16:18.499Z,0
2017-01-08T06:17:18.512Z,0
2017-01-08T06:18:18.496Z,0
2017-01-08T06:19:19.196Z,0
2017-01-08T06:20:18.900Z,0
2017-01-08T06:21:19.332Z,0
2017-01-08T06:22:18.880Z,0
2017-01-08T06:23:18.889Z,0
2017-01-08T06:24:18.880Z,0
2017-01-08T06:25:19.289Z,0
2017-01-08T06:26:18.468Z,0
2017-01-08T06:27:18.877Z,0
2017-01-08T06:28:18.458Z,0
2017-01-08T06:29:18.861Z,0
2017-01-08T06:30:18.038Z,0
2017-01-08T06:31:18.059Z,0
2017-01-08T06:32:18.858Z,0
2017-01-08T06:33:18.438Z,0
2017-01-08T06:34:18.426Z,0
2017-01-08T06:35:18.430Z,0
2017-01-08T06:36:19.282Z,0
2017-01-08T06:37:18.418Z,0
2017-01-08T06:38:19.242Z,0
2017-01-08T06:39:18.423Z,0
2017-01-08T06:40:18.418Z,0
2017-01-08T06:41:18.819Z,0
2017-01-08T06:42:19.216Z,0
2017-01-08T06:43:18.815Z,0
2017-01-08T06:44:18.807Z,0
2017-01-08T06:45:19.214Z,0
2017-01-08T06:46:18.392Z,0
2017-01-08T06:47:18.808Z,0
2017-01-08T06:48:18.792Z,0
2017-01-08T06:49:18.792Z,0
2017-01-08T06:50:18.781Z,0
2017-01-08T06:51:18.369Z,0
2017-01-08T06:52:17.961Z,0
2017-01-08T06:53:18.361Z,0
2017-01-08T06:54:18.769Z,0
2017-01-08T06:55:18.357Z,0
2017-01-08T06:56:18.769Z,0
2017-01-08T06:57:18.342Z,0
2017-01-08T06:58:19.166Z,0
2017-01-08T06:59:18.334Z,0
2017-01-08T07:00:18.758Z,0
2017-01-08T07:01:18.743Z,0
2017-01-08T07:02:18.744Z,0
2017-01-08T07:03:18.746Z,0
2017-01-08T07:04:18.323Z,0
2017-01-08T07:05:19.147Z,0
2017-01-08T07:06:19.139Z,0
2017-01-08T07:07:19.139Z,0
2017-01-08T07:08:18.311Z,0
2017-01-08T07:09:18.711Z,0
2017-01-08T07:10:18.308Z,0
2017-01-08T07:11:18.716Z,0
2017-01-08T07:12:18.724Z,0
2017-01-08T07:13:18.300Z,0
2017-01-08T07:14:17.884Z,0
2017-01-08T07:15:19.120Z,0
2017-01-08T07:16:19.100Z,0
2017-01-08T07:17:17.872Z,0
2017-01-08T07:18:19.088Z,0
2017-01-08T07:19:19.087Z,0
2017-01-08T07:20:18.680Z,0
2017-01-08T07:21:18.664Z,0
2017-01-08T07:22:18.264Z,0
2017-01-08T07:23:18.667Z,5
2017-01-08T07:24:18.915Z,5
2017-01-08T07:25:18.661Z,5
2017-01-08T07:26:19.067Z,5
2017-01-08T07:27:19.068Z,5
2017-01-08T07:28:18.647Z,5
2017-01-08T07:29:18.639Z,5
2017-01-08T07:30:18.231Z,5
2017-01-08T07:31:18.227Z,5
2017-01-08T07:32:18.219Z,5
2017-01-08T07:33:18.620Z,5
2017-01-08T07:34:19.031Z,10
2017-01-08T07:35:17.792Z,10
2017-01-08T07:36:18.616Z,10
2017-01-08T07:37:18.204Z,10
2017-01-08T07:38:18.620Z,10
2017-01-08T07:39:18.604Z,10
2017-01-08T07:40:18.612Z,10
2017-01-08T07:41:17.784Z,10
2017-01-08T07:42:18.172Z,10
2017-01-08T07:43:18.596Z,10
2017-01-08T07:44:18.584Z,10
2017-01-08T07:45:19.000Z,15
2017-01-08T07:46:18.576Z,15
2017-01-08T07:47:18.572Z,15
2017-01-08T07:48:18.572Z,15
2017-01-08T07:49:18.152Z,15
2017-01-08T07:50:18.160Z,15
2017-01-08T07:51:18.569Z,15
2017-01-08T07:52:18.969Z,15
2017-01-08T07:53:18.553Z,15
2017-01-08T07:54:18.557Z,15
2017-01-08T07:55:18.540Z,15
2017-01-08T07:56:18.541Z,15
2017-01-08T07:57:18.541Z,15
2017-01-08T07:58:18.949Z,15
2017-01-08T07:59:17.705Z,15
2017-01-08T08:00:17.705Z,15
2017-01-08T08:01:18.525Z,15
2017-01-08T08:02:18.521Z,15
2017-01-08T08:03:18.521Z,15
2017-01-08T08:04:18.517Z,15
2017-01-08T08:05:18.101Z,15
2017-01-08T08:06:18.501Z,15
2017-01-08T08:07:18.501Z,20
2017-01-08T08:08:18.917Z,20
2017-01-08T08:09:18.089Z,20
2017-01-08T08:10:18.497Z,20
2017-01-08T08:11:18.080Z,25
2017-01-08T08:12:18.892Z,25
2017-01-08T08:13:18.476Z,25
2017-01-08T08:14:18.068Z,25
2017-01-08T08:15:17.646Z,25
2017-01-08T08:16:18.052Z,25
2017-01-08T08:17:18.055Z,25
2017-01-08T08:18:18.867Z,25
2017-01-08T08:19:18.860Z,25
2017-01-08T08:20:17.639Z,30
2017-01-08T08:21:18.035Z,30
2017-01-08T08:22:18.443Z,30
2017-01-08T08:23:17.619Z,30
2017-01-08T08:24:18.038Z,30
2017-01-08T08:25:18.447Z,30
2017-01-08T08:26:18.027Z,30
2017-01-08T08:27:18.455Z,30
2017-01-08T08:28:18.423Z,30
2017-01-08T08:29:18.830Z,30
2017-01-08T08:30:18.006Z,35
2017-01-08T08:31:17.994Z,35
2017-01-08T08:32:17.614Z,35
2017-01-08T08:33:17.998Z,40
2017-01-08T08:34:18.403Z,40
2017-01-08T08:35:18.402Z,40
2017-01-08T08:36:18.810Z,40
2017-01-08T08:37:17.982Z,40
2017-01-08T08:38:17.574Z,40
2017-01-08T08:39:18.382Z,40
2017-01-08T08:40:18.378Z,40
2017-01-08T08:41:18.382Z,40
2017-01-08T08:42:18.790Z,45
2017-01-08T08:43:17.546Z,45
2017-01-08T08:44:17.962Z,45
2017-01-08T08:45:17.954Z,45
2017-01-08T08:46:18.362Z,45
2017-01-08T08:47:18.358Z,45
2017-01-08T08:48:18.354Z,40
2017-01-08T08:49:17.934Z,40
2017-01-08T08:50:17.942Z,40
2017-01-08T08:51:18.350Z,40
2017-01-08T08:52:17.926Z,40
2017-01-08T08:53:18.742Z,45
2017-01-08T08:54:17.510Z,45
2017-01-08T08:55:17.914Z,45
2017-01-08T08:56:18.330Z,45
2017-01-08T08:57:17.914Z,45
2017-01-08T08:58:17.914Z,45
2017-01-08T08:59:18.318Z,45
2017-01-08T09:00:18.298Z,45
2017-01-08T09:01:18.298Z,45
2017-01-08T09:02:18.298Z,45
2017-01-08T09:03:17.898Z,45
2017-01-08T09:04:18.299Z,45
2017-01-08T09:05:17.890Z,45
2017-01-08T09:06:18.302Z,45
2017-01-08T09:07:18.294Z,50
2017-01-08T09:08:18.282Z,50
2017-01-08T09:09:17.882Z,50
2017-01-08T09:10:18.283Z,50
2017-01-08T09:11:18.274Z,50
2017-01-08T09:12:18.426Z,50
2017-01-08T09:13:18.266Z,50
2017-01-08T09:14:18.274Z,50
2017-01-08T09:15:18.254Z,55
2017-01-08T09:16:17.858Z,60
2017-01-08T09:17:18.674Z,65
2017-01-08T09:18:18.674Z,65
2017-01-08T09:19:18.278Z,65
2017-01-08T09:20:18.258Z,70
2017-01-08T09:21:18.646Z,70
2017-01-08T09:22:18.247Z,75
2017-01-08T09:23:18.254Z,75
2017-01-08T09:24:18.235Z,75
2017-01-08T09:25:17.831Z,75
2017-01-08T09:26:17.407Z,75
2017-01-08T09:27:18.223Z,70
2017-01-08T09:28:17.811Z,70
2017-01-08T09:29:18.631Z,70
2017-01-08T09:30:18.219Z,70
2017-01-08T09:31:17.799Z,70
2017-01-08T09:32:18.615Z,70
2017-01-08T09:33:18.207Z,65
2017-01-08T09:34:18.211Z,65
2017-01-08T09:35:17.799Z,60
2017-01-08T09:36:18.204Z,60
2017-01-08T09:37:18.192Z,60
2017-01-08T09:38:18.608Z,60
2017-01-08T09:39:18.192Z,60
2017-01-08T09:40:18.220Z,60
2017-01-08T09:41:17.356Z,60
2017-01-08T09:42:18.198Z,60
2017-01-08T09:43:16.948Z,60
2017-01-08T09:44:18.592Z,60
2017-01-08T09:45:18.188Z,65
2017-01-08T09:46:17.753Z,65
2017-01-08T09:47:18.164Z,70
2017-01-08T09:48:18.581Z,70
2017-01-08T09:49:17.748Z,70
2017-01-08T09:50:17.752Z,65
2017-01-08T09:51:18.165Z,65
2017-01-08T09:52:18.565Z,65
2017-01-08T09:53:17.333Z,65
2017-01-08T09:54:18.146Z,65
2017-01-08T09:55:18.397Z,60
2017-01-08T09:56:17.321Z,60
2017-01-08T09:57:18.149Z,65
2017-01-08T09:58:17.325Z,65
2017-01-08T09:59:17.713Z,65
2017-01-08T10:00:18.545Z,65
2017-01-08T10:01:17.717Z,65
2017-01-08T10:02:18.130Z,70
2017-01-08T10:03:18.153Z,75
2017-01-08T10:04:18.126Z,75
2017-01-08T10:05:18.113Z,75
2017-01-08T10:06:17.301Z,75
2017-01-08T10:07:17.702Z,75
2017-01-08T10:08:17.702Z,75
2017-01-08T10:09:18.114Z,75
2017-01-08T10:10:18.102Z,75
2017-01-08T10:11:18.102Z,75
2017-01-08T10:12:18.098Z,75
2017-01-08T10:13:18.097Z,75
2017-01-08T10:14:17.270Z,75
2017-01-08T10:15:18.086Z,75
2017-01-08T10:16:18.086Z,80
2017-01-08T10:17:18.497Z,80
2017-01-08T10:18:17.665Z,75
2017-01-08T10:19:17.666Z,70
2017-01-08T10:20:17.261Z,75
2017-01-08T10:21:18.077Z,80
2017-01-08T10:22:18.485Z,80
2017-01-08T10:23:18.481Z,85
2017-01-08T10:24:18.481Z,85
2017-01-08T10:25:18.061Z,85
2017-01-08T10:26:18.061Z,85
2017-01-08T10:27:17.645Z,85
2017-01-08T10:28:18.057Z,85
2017-01-08T10:29:18.466Z,85
2017-01-08T10:30:17.670Z,85
2017-01-08T10:31:18.457Z,85
2017-01-08T10:32:17.634Z,85
2017-01-08T10:33:18.038Z,90
2017-01-08T10:34:18.038Z,90
2017-01-08T10:35:18.033Z,95
2017-01-08T10:36:18.038Z,95
2017-01-08T10:37:18.452Z,95
2017-01-08T10:38:18.038Z,100
2017-01-08T10:39:18.021Z,100
2017-01-08T10:40:17.641Z,100
2017-01-08T10:41:18.046Z,100
2017-01-08T10:42:17.598Z,100
2017-01-08T10:43:18.018Z,100
2017-01-08T10:44:18.430Z,100
2017-01-08T10:45:17.598Z,100
2017-01-08T10:46:18.018Z,105
2017-01-08T10:47:17.594Z,105
2017-01-08T10:48:18.018Z,105
2017-01-08T10:49:18.418Z,105
2017-01-08T10:50:17.990Z,110
2017-01-08T10:51:17.586Z,110
2017-01-08T10:52:18.398Z,115
2017-01-08T10:53:17.582Z,115
2017-01-08T10:54:17.170Z,115
2017-01-08T10:55:17.587Z,110
2017-01-08T10:56:17.994Z,110
2017-01-08T10:57:17.575Z,105
2017-01-08T10:58:18.395Z,105
2017-01-08T10:59:17.567Z,105
2017-01-08T11:00:18.395Z,100
2017-01-08T11:01:18.395Z,100
2017-01-08T11:02:17.143Z,100
2017-01-08T11:03:18.383Z,95
2017-01-08T11:04:17.579Z,95
2017-01-08T11:05:17.151Z,90
2017-01-08T11:06:17.971Z,90
2017-01-08T11:07:18.375Z,90
2017-01-08T11:08:17.559Z,90
2017-01-08T11:09:18.371Z,90
2017-01-08T11:10:18.371Z,90
2017-01-08T11:11:18.367Z,95
2017-01-08T11:12:17.532Z,95
2017-01-08T11:13:17.528Z,95
2017-01-08T11:14:17.948Z,95
2017-01-08T11:15:17.540Z,95
2017-01-08T11:16:17.936Z,95
2017-01-08T11:17:18.352Z,95
2017-01-08T11:18:17.524Z,95
2017-01-08T11:19:17.956Z,95
2017-01-08T11:20:17.924Z,95
2017-01-08T11:21:17.936Z,95
2017-01-08T11:22:17.522Z,95
2017-01-08T11:23:18.332Z,95
2017-01-08T11:24:17.928Z,90
2017-01-08T11:25:17.512Z,90
2017-01-08T11:26:17.913Z,90
2017-01-08T11:27:18.325Z,90
2017-01-08T11:28:17.921Z,90
2017-01-08T11:29:17.909Z,95
2017-01-08T11:30:17.513Z,95
2017-01-08T11:31:17.924Z,100
2017-01-08T11:32:17.909Z,100
2017-01-08T11:33:18.317Z,100
2017-01-08T11:34:17.905Z,105
2017-01-08T11:35:17.905Z,105
2017-01-08T11:36:17.913Z,110
2017-01-08T11:37:17.897Z,105
2017-01-08T11:38:18.314Z,105
2017-01-08T11:39:17.482Z,105
2017-01-08T11:40:17.486Z,100
2017-01-08T11:41:18.302Z,95
2017-01-08T11:42:17.898Z,95
2017-01-08T11:43:17.478Z,90
2017-01-08T11:44:18.298Z,90
2017-01-08T11:45:17.886Z,85
2017-01-08T11:46:17.878Z,85
2017-01-08T11:47:18.286Z,80
2017-01-08T11:48:18.290Z,80
2017-01-08T11:49:17.874Z,80
2017-01-08T11:50:17.522Z,80
2017-01-08T11:51:17.451Z,85
2017-01-08T11:52:18.287Z,85
2017-01-08T11:53:17.447Z,85
2017-01-08T11:54:18.283Z,85
2017-01-08T11:55:17.891Z,85
2017-01-08T11:56:17.863Z,85
2017-01-08T11:57:17.451Z,85
2017-01-08T11:58:17.864Z,85
2017-01-08T11:59:17.851Z,85
2017-01-08T12:00:18.319Z,85
2017-01-08T12:01:17.431Z,85
2017-01-08T12:02:17.448Z,85
2017-01-08T12:03:17.435Z,85
2017-01-08T12:04:18.264Z,80
2017-01-08T12:05:17.864Z,80
2017-01-08T12:06:17.852Z,80
2017-01-08T12:07:17.432Z,75
2017-01-08T12:08:17.843Z,75
2017-01-08T12:09:18.256Z,75
2017-01-08T12:10:17.428Z,70
2017-01-08T12:11:17.836Z,70
2017-01-08T12:12:18.256Z,70
2017-01-08T12:13:17.828Z,70
2017-01-08T12:14:17.022Z,65
2017-01-08T12:15:17.820Z,65
2017-01-08T12:16:18.228Z,65
2017-01-08T12:17:17.833Z,65
2017-01-08T12:18:17.413Z,65
2017-01-08T12:19:17.816Z,60
2017-01-08T12:20:18.225Z,60
2017-01-08T12:21:17.813Z,60
2017-01-08T12:22:17.813Z,60
2017-01-08T12:23:16.985Z,60
2017-01-08T12:24:18.221Z,55
2017-01-08T12:25:18.217Z,55
2017-01-08T12:26:18.221Z,55
2017-01-08T12:27:17.398Z,55
2017-01-08T12:28:17.398Z,55
2017-01-08T12:29:17.809Z,55
2017-01-08T12:30:17.805Z,60
2017-01-08T12:31:17.802Z,65
2017-01-08T12:32:17.386Z,70
2017-01-08T12:33:16.970Z,75
2017-01-08T12:34:17.374Z,80
2017-01-08T12:35:17.378Z,80
2017-01-08T12:36:18.194Z,85
2017-01-08T12:37:17.378Z,85
2017-01-08T12:38:17.778Z,90
2017-01-08T12:39:17.366Z,90
2017-01-08T12:40:18.194Z,90
2017-01-08T12:41:17.775Z,90
2017-01-08T12:42:17.362Z,85
2017-01-08T12:43:17.770Z,80
2017-01-08T12:44:18.175Z,80
2017-01-08T12:45:17.775Z,80
2017-01-08T12:46:18.171Z,85
2017-01-08T12:47:18.171Z,90
2017-01-08T12:48:17.758Z,90
2017-01-08T12:49:17.755Z,95
2017-01-08T12:50:17.755Z,95
2017-01-08T12:51:18.175Z,100
2017-01-08T12:52:17.347Z,100
2017-01-08T12:53:17.347Z,100
2017-01-08T12:54:17.335Z,105
2017-01-08T12:55:17.331Z,105
2017-01-08T12:56:17.339Z,110
2017-01-08T12:57:17.755Z,110
2017-01-08T12:58:17.744Z,115
2017-01-08T12:59:17.739Z,115
2017-01-08T13:00:17.339Z,115
2017-01-08T13:01:17.723Z,115
2017-01-08T13:02:16.912Z,115
2017-01-08T13:03:17.732Z,115
2017-01-08T13:04:18.136Z,115
2017-01-08T13:05:17.320Z,115
2017-01-08T13:06:18.136Z,115
2017-01-08T13:07:17.716Z,115
2017-01-08T13:08:17.344Z,120
2017-01-08T13:09:18.140Z,120
2017-01-08T13:10:17.716Z,120
2017-01-08T13:11:18.128Z,120
2017-01-08T13:12:17.716Z,120
2017-01-08T13:13:17.724Z,115
2017-01-08T13:14:17.720Z,110
2017-01-08T13:15:16.888Z,105
2017-01-08T13:16:17.713Z,100
2017-01-08T13:17:17.704Z,100
2017-01-08T13:18:17.704Z,95
2017-01-08T13:19:17.293Z,90
2017-01-08T13:20:18.124Z,90
2017-01-08T13:21:18.117Z,85
2017-01-08T13:22:17.288Z,85
2017-01-08T13:23:18.109Z,80
2017-01-08T13:24:17.693Z,80
2017-01-08T13:25:17.693Z,80
2017-01-08T13:26:17.689Z,80
2017-01-08T13:27:17.693Z,80
2017-01-08T13:28:17.285Z,80
2017-01-08T13:29:17.689Z,80
2017-01-08T13:30:16.861Z,80
2017-01-08T13:31:17.681Z,80
2017-01-08T13:32:17.673Z,75
2017-01-08T13:33:17.261Z,75
2017-01-08T13:34:17.673Z,75
2017-01-08T13:35:17.261Z,75
2017-01-08T13:36:17.677Z,75
2017-01-08T13:37:17.677Z,75
2017-01-08T13:38:16.849Z,75
2017-01-08T13:39:17.265Z,70
2017-01-08T13:40:17.665Z,70
2017-01-08T13:41:17.253Z,70
2017-01-08T13:42:18.077Z,65
2017-01-08T13:43:18.078Z,65
2017-01-08T13:44:18.085Z,60
2017-01-08T13:45:17.694Z,60
2017-01-08T13:46:17.242Z,60
2017-01-08T13:47:16.833Z,60
2017-01-08T13:48:17.658Z,60
2017-01-08T13:49:17.238Z,60
2017-01-08T13:50:17.234Z,60
2017-01-08T13:51:17.242Z,60
2017-01-08T13:52:18.070Z,60
2017-01-08T13:53:17.650Z,55
2017-01-08T13:54:18.061Z,55
2017-01-08T13:55:17.634Z,55
2017-01-08T13:56:17.634Z,55
2017-01-08T13:57:17.634Z,55
2017-01-08T13:58:17.634Z,50
2017-01-08T13:59:17.638Z,50
2017-01-08T14:00:17.635Z,45
2017-01-08T14:01:17.630Z,50
2017-01-08T14:02:17.626Z,45
2017-01-08T14:03:18.054Z,45
2017-01-08T14:04:17.230Z,45
2017-01-08T14:05:17.626Z,45
2017-01-08T14:06:17.215Z,45
2017-01-08T14:07:18.030Z,45
2017-01-08T14:08:18.027Z,45
2017-01-08T14:09:17.626Z,45
2017-01-08T14:10:17.618Z,45
2017-01-08T14:11:17.615Z,45
2017-01-08T14:12:17.199Z,40
2017-01-08T14:13:18.035Z,40
2017-01-08T14:14:17.611Z,40
2017-01-08T14:15:18.018Z,40
2017-01-08T14:16:17.610Z,35
2017-01-08T14:17:17.603Z,35
2017-01-08T14:18:17.203Z,35
2017-01-08T14:19:17.603Z,35
2017-01-08T14:20:17.183Z,35
2017-01-08T14:21:17.611Z,30
2017-01-08T14:22:17.192Z,30
2017-01-08T14:23:17.587Z,30
2017-01-08T14:24:17.619Z,30
2017-01-08T14:25:18.003Z,30
2017-01-08T14:26:17.987Z,30
2017-01-08T14:27:17.583Z,30
2017-01-08T14:28:17.167Z,30
2017-01-08T14:29:17.575Z,30